createdAt,value
2018-09-26T00:00:43.741Z,9.50
2018-09-26T00:03:25.872Z,9.40
2018-09-26T00:05:54.591Z,9.30
2018-09-26T00:08:23.320Z,9.20
2018-09-26T00:10:52.011Z,9.20
2018-09-26T00:13:20.731Z,9.30
2018-09-26T00:15:49.441Z,9.30
2018-09-26T00:18:18.155Z,9.30
2018-09-26T00:20:46.850Z,9.20
2018-09-26T00:23:15.548Z,9.20
2018-09-26T00:25:44.383Z,9.20
2018-09-26T00:28:13.059Z,9.20
2018-09-26T00:30:41.745Z,9.10
2018-09-26T00:33:10.571Z,8.90
2018-09-26T00:35:39.364Z,8.90
2018-09-26T00:38:08.082Z,8.80
2018-09-26T00:40:36.795Z,8.80
2018-09-26T00:43:05.523Z,8.80
2018-09-26T00:45:34.227Z,8.80
2018-09-26T00:48:02.939Z,8.80
2018-09-26T00:50:31.743Z,8.70
2018-09-26T00:53:00.545Z,8.70
2018-09-26T00:55:29.216Z,8.70
2018-09-26T00:57:57.943Z,8.70
2018-09-26T01:00:26.688Z,8.60
2018-09-26T01:02:55.375Z,8.60
2018-09-26T01:05:24.108Z,8.60
2018-09-26T01:07:53.049Z,8.70
2018-09-26T01:10:21.762Z,8.70
2018-09-26T01:12:50.783Z,8.70
2018-09-26T01:15:19.484Z,8.70
2018-09-26T01:17:48.223Z,8.80
2018-09-26T01:20:16.999Z,8.80
2018-09-26T01:22:45.712Z,8.80
2018-09-26T01:25:14.383Z,8.80
2018-09-26T01:27:43.204Z,8.70
2018-09-26T01:30:11.958Z,8.70
2018-09-26T01:32:41.131Z,8.70
2018-09-26T01:35:09.968Z,8.70
2018-09-26T01:37:38.724Z,8.70
2018-09-26T01:40:07.560Z,8.70
2018-09-26T01:42:36.396Z,8.70
2018-09-26T01:45:05.627Z,8.70
2018-09-26T01:47:34.337Z,8.60
2018-09-26T01:50:03.185Z,8.60
2018-09-26T01:52:31.851Z,8.60
2018-09-26T01:55:00.583Z,8.60
2018-09-26T01:57:29.344Z,8.50
2018-09-26T01:59:58.068Z,8.50
2018-09-26T02:02:26.842Z,8.40
2018-09-26T02:04:55.526Z,8.30
2018-09-26T02:07:24.207Z,8.20
2018-09-26T02:09:52.951Z,8.20
2018-09-26T02:12:21.738Z,8.20
2018-09-26T02:14:50.432Z,8.20
2018-09-26T02:17:19.171Z,8.20
2018-09-26T02:19:47.899Z,8.20
2018-09-26T02:22:16.656Z,8.20
2018-09-26T02:24:45.396Z,8.30
2018-09-26T02:27:14.095Z,8.20
2018-09-26T02:29:42.816Z,8.20
2018-09-26T02:34:39.946Z,7.80
2018-09-26T02:37:09.512Z,7.80
2018-09-26T02:39:39.272Z,7.70
2018-09-26T02:42:07.984Z,7.70
2018-09-26T02:44:36.807Z,7.60
2018-09-26T02:47:05.608Z,7.70
2018-09-26T02:49:34.320Z,7.80
2018-09-26T02:52:03.048Z,7.90
2018-09-26T02:54:31.887Z,7.90
2018-09-26T02:57:00.631Z,7.90
2018-09-26T02:59:29.396Z,7.90
2018-09-26T03:01:58.179Z,7.90
2018-09-26T03:04:26.887Z,7.90
2018-09-26T03:06:55.704Z,7.80
2018-09-26T03:09:24.392Z,7.80
2018-09-26T03:11:53.173Z,7.80
2018-09-26T03:14:21.963Z,7.90
2018-09-26T03:16:50.652Z,8.00
2018-09-26T03:19:19.372Z,8.00
2018-09-26T03:21:48.068Z,7.90
2018-09-26T03:24:16.799Z,7.80
2018-09-26T03:26:45.571Z,7.70
2018-09-26T03:29:14.280Z,7.60
2018-09-26T03:31:42.965Z,7.70
2018-09-26T03:34:11.779Z,7.80
2018-09-26T03:36:40.524Z,7.80
2018-09-26T03:39:09.352Z,7.80
2018-09-26T03:41:38.170Z,7.90
2018-09-26T03:44:06.939Z,7.80
2018-09-26T03:46:35.585Z,7.80
2018-09-26T03:49:04.360Z,7.80
2018-09-26T03:51:33.175Z,7.80
2018-09-26T03:54:01.903Z,7.80
2018-09-26T03:56:30.675Z,7.80
2018-09-26T03:58:59.411Z,7.80
2018-09-26T04:01:28.131Z,7.80
2018-09-26T04:03:56.872Z,7.80
2018-09-26T04:06:25.563Z,7.70
2018-09-26T04:08:54.345Z,7.70
2018-09-26T04:11:23.195Z,7.70
2018-09-26T04:13:51.890Z,7.70
2018-09-26T04:16:20.655Z,7.70
2018-09-26T04:18:49.395Z,7.70
2018-09-26T04:21:18.138Z,7.70
2018-09-26T04:23:46.924Z,7.70
2018-09-26T04:26:15.779Z,7.70
2018-09-26T04:28:44.490Z,7.80
2018-09-26T04:31:13.359Z,7.70
2018-09-26T04:33:42.561Z,7.80
2018-09-26T04:36:11.259Z,7.80
2018-09-26T04:38:40.073Z,7.90
2018-09-26T04:41:08.754Z,8.00
2018-09-26T04:43:37.592Z,8.00
2018-09-26T04:46:06.361Z,8.00
2018-09-26T04:48:35.096Z,7.90
2018-09-26T04:51:03.907Z,8.00
2018-09-26T04:53:32.725Z,8.10
2018-09-26T04:56:01.566Z,8.10
2018-09-26T04:58:30.398Z,8.10
2018-09-26T05:00:59.220Z,8.20
2018-09-26T05:03:28.309Z,8.30
2018-09-26T05:05:57.088Z,8.40
2018-09-26T05:08:25.866Z,8.30
2018-09-26T05:10:54.671Z,8.30
2018-09-26T05:13:23.409Z,8.30
2018-09-26T05:15:52.123Z,8.30
2018-09-26T05:18:20.876Z,8.40
2018-09-26T05:20:49.567Z,8.40
2018-09-26T05:23:18.280Z,8.50
2018-09-26T05:25:47.059Z,8.50
2018-09-26T05:28:15.870Z,8.60
2018-09-26T05:30:44.615Z,8.70
2018-09-26T05:33:13.335Z,8.70
2018-09-26T05:35:42.026Z,8.80
2018-09-26T05:38:10.766Z,8.80
2018-09-26T05:40:39.543Z,8.80
2018-09-26T05:43:08.408Z,8.80
2018-09-26T05:45:37.215Z,8.90
2018-09-26T05:48:05.996Z,8.90
2018-09-26T05:50:34.675Z,9.00
2018-09-26T05:53:03.459Z,9.00
2018-09-26T05:55:32.267Z,9.00
2018-09-26T05:58:01.023Z,9.10
2018-09-26T06:00:29.804Z,9.10
2018-09-26T06:02:59.003Z,9.00
2018-09-26T06:05:36.928Z,9.10
2018-09-26T06:08:05.677Z,9.10
2018-09-26T06:10:34.486Z,9.10
2018-09-26T06:13:03.325Z,9.20
2018-09-26T06:15:32.045Z,9.20
2018-09-26T06:18:00.739Z,9.10
2018-09-26T06:20:29.402Z,9.20
2018-09-26T06:22:58.166Z,9.20
2018-09-26T06:25:26.883Z,9.10
2018-09-26T06:27:55.615Z,9.20
2018-09-26T06:30:24.405Z,9.10
2018-09-26T06:32:53.139Z,9.20
2018-09-26T06:35:21.875Z,9.20
2018-09-26T06:37:50.976Z,9.30
2018-09-26T06:40:19.823Z,9.30
2018-09-26T06:42:48.725Z,9.30
2018-09-26T06:45:17.591Z,9.30
2018-09-26T06:47:46.336Z,9.20
2018-09-26T06:50:15.047Z,9.20
2018-09-26T06:52:43.820Z,9.20
2018-09-26T06:55:12.648Z,9.20
2018-09-26T06:57:41.391Z,9.20
2018-09-26T07:00:10.242Z,9.20
2018-09-26T07:02:38.972Z,9.10
2018-09-26T07:05:07.818Z,9.10
2018-09-26T07:07:36.601Z,9.00
2018-09-26T07:10:05.480Z,9.00
2018-09-26T07:12:34.235Z,9.00
2018-09-26T07:15:02.909Z,9.00
2018-09-26T07:17:31.732Z,9.10
2018-09-26T07:20:00.568Z,9.00
2018-09-26T07:22:29.306Z,9.00
2018-09-26T07:24:58.030Z,9.00
2018-09-26T07:27:26.792Z,9.00
2018-09-26T07:29:55.574Z,9.00
2018-09-26T07:32:24.322Z,9.00
2018-09-26T07:34:53.092Z,9.10
2018-09-26T07:37:21.790Z,9.10
2018-09-26T07:39:50.531Z,9.00
2018-09-26T07:42:19.275Z,9.00
2018-09-26T07:44:48.016Z,8.90
2018-09-26T07:47:16.796Z,8.90
2018-09-26T07:49:45.495Z,8.90
2018-09-26T07:52:14.291Z,8.90
2018-09-26T07:54:43.045Z,8.90
2018-09-26T07:57:11.820Z,8.90
2018-09-26T07:59:40.544Z,8.90
2018-09-26T08:02:09.262Z,9.00
2018-09-26T08:04:38.022Z,9.00
2018-09-26T08:07:06.775Z,8.90
2018-09-26T08:09:35.602Z,9.00
2018-09-26T08:12:04.283Z,9.00
2018-09-26T08:14:33.000Z,9.00
2018-09-26T08:17:01.789Z,9.10
2018-09-26T08:19:30.407Z,9.20
2018-09-26T08:21:59.209Z,9.30
2018-09-26T08:24:27.947Z,9.50
2018-09-26T08:26:56.670Z,9.70
2018-09-26T08:29:25.439Z,9.90
2018-09-26T08:31:54.283Z,10.00
2018-09-26T08:34:23.147Z,10.20
2018-09-26T08:36:51.877Z,10.40
2018-09-26T08:39:20.691Z,10.60
2018-09-26T08:41:49.396Z,10.90
2018-09-26T08:44:18.196Z,11.20
2018-09-26T08:46:46.917Z,11.50
2018-09-26T08:49:15.683Z,11.80
2018-09-26T08:51:44.456Z,12.00
2018-09-26T08:54:13.249Z,12.20
2018-09-26T08:56:41.982Z,12.30
2018-09-26T08:59:10.759Z,12.40
2018-09-26T09:01:44.871Z,12.50
2018-09-26T09:04:13.899Z,12.70
2018-09-26T09:06:42.587Z,13.00
2018-09-26T09:09:11.408Z,13.10
2018-09-26T09:11:42.572Z,13.10
2018-09-26T09:14:11.331Z,13.20
2018-09-26T09:16:45.101Z,13.30
2018-09-26T09:19:13.928Z,13.50
2018-09-26T09:21:42.631Z,13.60
2018-09-26T09:26:39.828Z,13.80
2018-09-26T09:29:08.771Z,14.10
2018-09-26T09:31:37.863Z,14.30
2018-09-26T09:34:06.697Z,14.50
2018-09-26T09:36:35.437Z,14.60
2018-09-26T09:39:05.295Z,14.80
2018-09-26T09:41:34.134Z,15.00
2018-09-26T09:44:03.361Z,15.20
2018-09-26T09:46:32.787Z,15.20
2018-09-26T09:49:01.623Z,15.30
2018-09-26T09:51:30.561Z,15.50
2018-09-26T09:53:59.375Z,15.50
2018-09-26T09:56:33.244Z,15.40
2018-09-26T09:59:01.972Z,15.60
2018-09-26T10:01:30.800Z,15.80
2018-09-26T10:04:00.499Z,15.90
2018-09-26T10:11:28.324Z,16.50
2018-09-26T10:13:57.124Z,16.70
2018-09-26T10:16:25.969Z,16.90
2018-09-26T10:18:54.759Z,17.00
2018-09-26T10:21:23.855Z,17.10
2018-09-26T10:23:52.676Z,17.30
2018-09-26T10:26:21.659Z,17.40
2018-09-26T10:28:50.401Z,17.40
2018-09-26T10:31:19.162Z,17.60
2018-09-26T10:33:47.903Z,18.00
2018-09-26T10:36:16.605Z,17.90
2018-09-26T10:38:45.347Z,18.00
2018-09-26T10:41:14.057Z,18.20
2018-09-26T10:43:42.821Z,18.10
2018-09-26T10:46:16.567Z,17.90
2018-09-26T10:48:45.255Z,18.00
2018-09-26T10:51:16.053Z,18.90
2018-09-26T10:53:44.949Z,18.50
2018-09-26T10:58:44.059Z,18.90
2018-09-26T11:01:12.865Z,18.90
2018-09-26T11:08:40.780Z,19.60
2018-09-26T11:21:10.411Z,20.70
2018-09-26T11:23:39.147Z,20.30
2018-09-26T11:26:07.886Z,20.40
2018-09-26T11:28:36.632Z,20.40
2018-09-26T11:31:05.379Z,20.40
2018-09-26T11:33:34.127Z,19.90
2018-09-26T11:36:03.028Z,20.40
2018-09-26T11:38:31.767Z,20.40
2018-09-26T11:41:00.527Z,20.40
2018-09-26T11:43:29.165Z,20.20
2018-09-26T11:45:58.007Z,20.20
2018-09-26T11:48:26.706Z,20.30
2018-09-26T11:53:24.717Z,20.10
2018-09-26T11:55:53.711Z,20.30
2018-09-26T11:58:22.372Z,20.40
2018-09-26T12:00:51.128Z,20.50
2018-09-26T12:03:22.353Z,21.20
2018-09-26T12:05:51.223Z,20.80
2018-09-26T12:08:20.051Z,21.00
2018-09-26T12:10:48.741Z,21.00
2018-09-26T12:13:17.624Z,21.10
2018-09-26T12:15:46.335Z,21.20
2018-09-26T12:18:15.077Z,21.20
2018-09-26T12:20:43.721Z,20.90
2018-09-26T12:23:12.467Z,21.10
2018-09-26T12:25:41.276Z,21.10
2018-09-26T12:28:10.025Z,21.30
2018-09-26T12:30:38.742Z,21.20
2018-09-26T12:33:07.491Z,21.20
2018-09-26T12:35:36.380Z,21.30
2018-09-26T12:38:05.127Z,21.30
2018-09-26T12:40:33.867Z,21.20
2018-09-26T12:43:02.940Z,21.30
2018-09-26T12:45:31.660Z,21.30
2018-09-26T12:48:00.415Z,21.40
2018-09-26T12:50:29.172Z,21.40
2018-09-26T12:52:57.855Z,21.20
2018-09-26T12:55:26.988Z,21.10
2018-09-26T12:57:55.711Z,21.20
2018-09-26T13:00:24.407Z,21.30
2018-09-26T13:02:53.117Z,21.20
2018-09-26T13:05:21.790Z,21.30
2018-09-26T13:07:50.443Z,21.40
2018-09-26T13:10:19.226Z,21.40
2018-09-26T13:12:47.865Z,21.50
2018-09-26T13:15:16.625Z,21.60
2018-09-26T13:17:45.312Z,21.80
2018-09-26T13:20:14.054Z,21.70
2018-09-26T13:22:42.711Z,21.60
2018-09-26T13:25:11.531Z,21.60
2018-09-26T13:27:40.324Z,21.50
2018-09-26T13:30:09.197Z,21.50
2018-09-26T13:32:37.915Z,21.30
2018-09-26T13:35:06.783Z,21.20
2018-09-26T13:37:35.654Z,21.10
2018-09-26T13:40:04.445Z,21.10
2018-09-26T13:42:33.283Z,21.00
2018-09-26T13:45:01.989Z,21.00
2018-09-26T14:07:23.596Z,20.60
2018-09-26T14:09:52.392Z,20.70
2018-09-26T14:12:21.111Z,20.70
2018-09-26T14:14:49.871Z,20.70
2018-09-26T14:17:18.942Z,20.70
2018-09-26T14:19:47.664Z,20.60
2018-09-26T14:22:16.779Z,20.60
2018-09-26T14:24:46.623Z,20.50
2018-09-26T14:29:46.209Z,20.20
2018-09-26T14:32:15.091Z,20.30
2018-09-26T14:34:44.099Z,20.10
2018-09-26T14:37:13.834Z,20.00
2018-09-26T14:39:42.684Z,20.00
2018-09-26T14:42:11.459Z,19.90
2018-09-26T14:44:40.220Z,19.90
2018-09-26T14:47:08.988Z,20.00
2018-09-26T14:49:37.668Z,20.00
2018-09-26T14:52:06.607Z,20.00
2018-09-26T14:54:35.367Z,20.00
2018-09-26T14:57:04.160Z,20.10
2018-09-26T14:59:32.960Z,20.10
2018-09-26T15:02:01.795Z,20.20
2018-09-26T15:04:30.637Z,20.20
2018-09-26T15:06:59.424Z,20.20
2018-09-26T15:09:28.296Z,20.10
2018-09-26T15:11:57.114Z,20.20
2018-09-26T15:14:26.003Z,20.20
2018-09-26T15:16:57.129Z,20.10
2018-09-26T15:19:26.064Z,20.00
2018-09-26T15:21:54.886Z,20.10
2018-09-26T15:24:23.849Z,20.10
2018-09-26T15:26:52.707Z,20.10
2018-09-26T15:29:21.748Z,20.10
2018-09-26T15:31:50.804Z,19.80
2018-09-26T15:34:19.576Z,19.40
2018-09-26T15:36:48.520Z,19.00
2018-09-26T15:39:17.335Z,18.50
2018-09-26T15:41:46.355Z,18.30
2018-09-26T15:44:15.347Z,18.10
2018-09-26T15:46:44.258Z,17.90
2018-09-26T15:49:13.015Z,17.70
2018-09-26T15:51:42.208Z,17.60
2018-09-26T15:54:11.159Z,17.50
2018-09-26T15:56:40.022Z,17.40
2018-09-26T15:59:09.012Z,17.30
2018-09-26T16:01:37.879Z,17.20
2018-09-26T16:04:06.912Z,17.10
2018-09-26T16:06:35.739Z,17.00
2018-09-26T16:09:05.212Z,17.10
2018-09-26T16:11:33.988Z,17.10
2018-09-26T16:14:03.751Z,17.10
2018-09-26T16:16:32.544Z,17.10
2018-09-26T16:19:01.328Z,17.10
2018-09-26T16:21:30.137Z,17.10
2018-09-26T16:23:58.771Z,17.00
2018-09-26T16:26:27.516Z,16.90
2018-09-26T16:28:56.275Z,16.80
2018-09-26T16:31:25.445Z,16.60
2018-09-26T16:33:54.527Z,16.50
2018-09-26T16:36:23.420Z,16.40
2018-09-26T16:38:52.127Z,16.30
2018-09-26T16:41:21.064Z,16.20
2018-09-26T16:43:49.739Z,16.10
2018-09-26T16:46:18.602Z,16.10
2018-09-26T16:48:47.195Z,16.10
2018-09-26T16:51:15.935Z,16.00
2018-09-26T16:53:44.795Z,16.10
2018-09-26T16:56:13.512Z,16.10
2018-09-26T16:58:42.215Z,16.10
2018-09-26T17:01:10.975Z,16.10
2018-09-26T17:03:39.648Z,16.10
2018-09-26T17:06:08.449Z,16.10
2018-09-26T17:08:37.304Z,16.00
2018-09-26T17:11:06.095Z,15.90
2018-09-26T17:13:34.819Z,15.80
2018-09-26T17:16:03.456Z,15.80
2018-09-26T17:18:32.540Z,15.80
2018-09-26T17:21:01.223Z,15.80
2018-09-26T17:23:29.954Z,15.70
2018-09-26T17:25:58.651Z,15.60
2018-09-26T17:28:27.418Z,15.60
2018-09-26T17:30:56.052Z,15.50
2018-09-26T17:33:24.754Z,15.40
2018-09-26T17:35:53.832Z,15.40
2018-09-26T17:38:22.556Z,15.30
2018-09-26T17:40:51.191Z,15.30
2018-09-26T17:43:19.919Z,15.30
2018-09-26T17:45:48.662Z,15.30
2018-09-26T17:48:17.439Z,15.30
2018-09-26T17:50:46.069Z,15.20
2018-09-26T17:53:14.753Z,15.10
2018-09-26T17:55:43.448Z,15.00
2018-09-26T17:58:12.205Z,15.00
2018-09-26T18:00:41.012Z,15.00
2018-09-26T18:03:09.784Z,14.90
2018-09-26T18:05:38.507Z,14.80
2018-09-26T18:08:07.356Z,14.70
2018-09-26T18:10:36.036Z,14.60
2018-09-26T18:13:04.824Z,14.60
2018-09-26T18:15:33.535Z,14.60
2018-09-26T18:18:02.408Z,14.60
2018-09-26T18:20:31.268Z,14.60
2018-09-26T18:22:59.935Z,14.60
2018-09-26T18:25:28.750Z,14.60
2018-09-26T18:27:57.877Z,14.70
2018-09-26T18:30:26.684Z,14.70
2018-09-26T18:32:55.435Z,14.70
2018-09-26T18:35:24.245Z,14.70
2018-09-26T18:37:53.037Z,14.70
2018-09-26T18:40:21.765Z,14.60
2018-09-26T18:42:50.495Z,14.60
2018-09-26T18:45:19.182Z,14.60
2018-09-26T18:47:47.923Z,14.50
2018-09-26T18:50:16.651Z,14.30
2018-09-26T18:52:45.414Z,14.30
2018-09-26T18:55:14.140Z,14.30
2018-09-26T18:57:42.847Z,14.20
2018-09-26T19:00:11.605Z,14.20
2018-09-26T19:02:41.223Z,14.20
2018-09-26T19:05:10.019Z,14.10
2018-09-26T19:07:38.673Z,14.10
2018-09-26T19:10:07.409Z,14.10
2018-09-26T19:12:36.176Z,14.10
2018-09-26T19:15:05.027Z,14.10
2018-09-26T19:17:33.815Z,14.10
2018-09-26T19:20:02.519Z,14.10
2018-09-26T19:22:31.196Z,14.10
2018-09-26T19:24:59.911Z,14.10
2018-09-26T19:27:28.780Z,14.00
2018-09-26T19:29:57.547Z,13.90
2018-09-26T19:32:26.272Z,13.90
2018-09-26T19:34:55.072Z,13.80
2018-09-26T19:37:23.815Z,13.80
2018-09-26T19:39:52.532Z,13.80
2018-09-26T19:42:21.263Z,13.90
2018-09-26T19:44:49.947Z,13.90
2018-09-26T19:47:18.659Z,13.90
2018-09-26T19:49:47.407Z,14.00
2018-09-26T19:52:16.148Z,13.90
2018-09-26T19:54:44.907Z,14.00
2018-09-26T19:57:13.734Z,13.90
2018-09-26T19:59:42.491Z,13.90
2018-09-26T20:02:11.275Z,13.90
2018-09-26T20:04:39.868Z,13.90
2018-09-26T20:07:08.616Z,13.90
2018-09-26T20:09:37.359Z,13.90
2018-09-26T20:12:06.159Z,13.90
2018-09-26T20:14:34.947Z,13.90
2018-09-26T20:17:03.740Z,14.00
2018-09-26T20:19:32.482Z,14.00
2018-09-26T20:22:01.248Z,14.00
2018-09-26T20:24:29.907Z,13.90
2018-09-26T20:26:58.687Z,13.90
2018-09-26T20:29:27.566Z,13.90
2018-09-26T20:31:56.251Z,13.90
2018-09-26T20:34:25.215Z,13.80
2018-09-26T20:36:53.924Z,13.70
2018-09-26T20:39:22.998Z,13.60
2018-09-26T20:41:51.752Z,13.60
2018-09-26T20:44:20.543Z,13.50
2018-09-26T20:46:49.249Z,13.50
2018-09-26T20:49:17.931Z,13.50
2018-09-26T20:51:46.758Z,13.50
2018-09-26T20:54:15.424Z,13.50
2018-09-26T20:56:44.172Z,13.50
2018-09-26T20:59:12.952Z,13.40
2018-09-26T21:01:41.661Z,13.40
2018-09-26T21:04:10.415Z,13.30
2018-09-26T21:06:39.211Z,13.30
2018-09-26T21:09:09.615Z,13.20
2018-09-26T21:11:38.408Z,13.20
2018-09-26T21:14:07.300Z,13.20
2018-09-26T21:16:36.078Z,13.20
2018-09-26T21:19:04.836Z,13.20
2018-09-26T21:21:33.511Z,13.20
2018-09-26T21:24:02.224Z,13.10
2018-09-26T21:26:30.982Z,13.10
2018-09-26T21:28:59.704Z,13.00
2018-09-26T21:31:28.492Z,13.00
2018-09-26T21:33:57.324Z,13.00
2018-09-26T21:36:26.044Z,13.00
2018-09-26T21:38:55.198Z,13.10
2018-09-26T21:41:23.985Z,13.10
2018-09-26T21:43:53.347Z,13.00
2018-09-26T21:46:22.091Z,13.00
2018-09-26T21:48:50.822Z,12.90
2018-09-26T21:51:19.721Z,12.80
2018-09-26T21:53:48.423Z,12.80
2018-09-26T21:56:17.231Z,12.70
2018-09-26T21:58:46.055Z,12.70
2018-09-26T22:01:15.744Z,12.70
2018-09-26T22:03:44.472Z,12.60
2018-09-26T22:06:13.534Z,12.50
2018-09-26T22:08:42.344Z,12.50
2018-09-26T22:11:11.024Z,12.60
2018-09-26T22:13:39.806Z,12.60
2018-09-26T22:16:08.567Z,12.60
2018-09-26T22:18:37.331Z,12.60
2018-09-26T22:21:06.044Z,12.60
2018-09-26T22:23:34.859Z,12.50
2018-09-26T22:26:08.879Z,12.50
2018-09-26T22:28:37.568Z,12.40
2018-09-26T22:31:06.440Z,12.40
2018-09-26T22:33:35.119Z,12.40
2018-09-26T22:36:03.935Z,12.40
2018-09-26T22:38:32.713Z,12.40
2018-09-26T22:41:01.513Z,12.30
2018-09-26T22:43:30.166Z,12.20
2018-09-26T22:45:58.875Z,12.20
2018-09-26T22:48:27.623Z,12.20
2018-09-26T22:50:56.424Z,12.20
2018-09-26T22:53:25.115Z,12.10
2018-09-26T22:55:53.810Z,12.10
2018-09-26T22:58:22.614Z,12.00
2018-09-26T23:00:51.350Z,12.00
2018-09-26T23:03:20.084Z,12.00
2018-09-26T23:05:49.079Z,12.00
2018-09-26T23:08:17.706Z,11.90
2018-09-26T23:10:46.427Z,11.90
2018-09-26T23:13:15.147Z,11.90
2018-09-26T23:15:44.114Z,11.90
2018-09-26T23:18:12.779Z,11.90
2018-09-26T23:20:41.641Z,11.90
2018-09-26T23:23:10.319Z,11.90
2018-09-26T23:25:39.155Z,12.00
2018-09-26T23:28:07.895Z,11.90
2018-09-26T23:30:36.640Z,11.90
2018-09-26T23:33:05.324Z,11.90
2018-09-26T23:35:33.996Z,11.90
2018-09-26T23:38:02.799Z,11.80
2018-09-26T23:40:31.508Z,11.80
2018-09-26T23:43:00.332Z,11.70
2018-09-26T23:45:29.067Z,11.70
2018-09-26T23:47:57.720Z,11.70
2018-09-26T23:50:26.471Z,11.70
2018-09-26T23:52:55.260Z,11.60
2018-09-26T23:55:29.220Z,11.60
2018-09-26T23:57:57.911Z,11.60
